createdAt,value
2018-06-30T00:00:34.641Z,99.90
2018-06-30T00:03:02.466Z,99.90
2018-06-30T00:05:30.357Z,99.90
2018-06-30T00:07:57.990Z,99.90
2018-06-30T00:10:29.985Z,99.90
2018-06-30T00:12:59.129Z,99.90
2018-06-30T00:15:26.978Z,99.90
2018-06-30T00:17:54.995Z,99.90
2018-06-30T00:20:22.777Z,99.90
2018-06-30T00:22:50.569Z,99.90
2018-06-30T00:25:18.308Z,99.90
2018-06-30T00:27:46.133Z,99.90
2018-06-30T00:30:13.961Z,99.90
2018-06-30T00:35:09.237Z,99.90
2018-06-30T00:37:36.845Z,99.90
2018-06-30T00:40:04.756Z,99.90
2018-06-30T00:42:32.487Z,99.90
2018-06-30T00:45:00.188Z,99.90
2018-06-30T00:47:27.907Z,99.90
2018-06-30T00:52:23.295Z,99.90
2018-06-30T00:54:51.082Z,99.90
2018-06-30T00:59:46.746Z,99.90
2018-06-30T01:02:14.381Z,99.90
2018-06-30T01:07:09.602Z,99.90
2018-06-30T01:12:05.038Z,99.90
2018-06-30T01:14:32.909Z,99.90
2018-06-30T01:17:00.609Z,99.90
2018-06-30T01:19:28.327Z,99.90
2018-06-30T01:21:56.156Z,99.90
2018-06-30T01:24:24.053Z,99.90
2018-06-30T01:26:51.775Z,99.90
2018-06-30T01:29:19.522Z,99.90
2018-06-30T01:31:47.192Z,99.90
2018-06-30T01:34:14.968Z,99.90
2018-06-30T01:36:42.809Z,99.90
2018-06-30T01:39:11.467Z,99.90
2018-06-30T01:41:39.665Z,99.90
2018-06-30T01:44:07.484Z,99.90
2018-06-30T01:49:03.785Z,99.90
2018-06-30T01:51:31.491Z,99.90
2018-06-30T01:58:54.617Z,99.90
2018-06-30T02:01:22.324Z,99.90
2018-06-30T02:03:50.207Z,99.90
2018-06-30T02:06:18.214Z,99.90
2018-06-30T02:08:45.912Z,99.90
2018-06-30T02:11:13.639Z,99.90
2018-06-30T02:13:41.354Z,99.90
2018-06-30T02:21:04.279Z,99.90
2018-06-30T02:23:31.983Z,99.90
2018-06-30T02:25:59.763Z,99.90
2018-06-30T02:28:27.405Z,99.90
2018-06-30T02:30:55.204Z,99.90
2018-06-30T02:33:22.848Z,99.90
2018-06-30T02:38:18.180Z,99.90
2018-06-30T02:40:45.906Z,99.90
2018-06-30T02:43:13.662Z,99.90
2018-06-30T02:45:41.377Z,99.90
2018-06-30T02:48:09.207Z,99.90
2018-06-30T02:50:37.009Z,99.90
2018-06-30T02:53:04.753Z,99.90
2018-06-30T02:58:00.109Z,99.90
2018-06-30T03:00:27.727Z,99.90
2018-06-30T03:02:55.418Z,99.90
2018-06-30T03:05:23.032Z,99.90
2018-06-30T03:07:50.725Z,99.90
2018-06-30T03:10:18.492Z,99.90
2018-06-30T03:12:46.122Z,99.90
2018-06-30T03:15:13.951Z,99.90
2018-06-30T03:17:41.675Z,99.90
2018-06-30T03:25:04.653Z,99.90
2018-06-30T03:32:27.589Z,99.90
2018-06-30T03:34:55.418Z,99.90
2018-06-30T03:37:23.070Z,99.90
2018-06-30T03:39:51.841Z,99.90
2018-06-30T03:44:47.143Z,99.90
2018-06-30T03:47:14.983Z,99.90
2018-06-30T03:49:42.703Z,99.90
2018-06-30T03:52:10.452Z,99.90
2018-06-30T03:57:05.754Z,99.90
2018-06-30T03:59:33.437Z,99.90
2018-06-30T04:04:28.809Z,99.90
2018-06-30T04:06:56.417Z,99.90
2018-06-30T04:11:51.789Z,99.90
2018-06-30T04:14:19.492Z,99.90
2018-06-30T04:16:47.222Z,99.90
2018-06-30T04:19:15.743Z,99.90
2018-06-30T04:21:44.510Z,99.90
2018-06-30T04:24:12.598Z,99.90
2018-06-30T04:26:41.848Z,99.90
2018-06-30T04:29:09.755Z,99.90
2018-06-30T04:31:37.532Z,99.90
2018-06-30T04:34:05.591Z,99.90
2018-06-30T04:39:02.700Z,99.90
2018-06-30T04:41:30.386Z,99.90
2018-06-30T04:43:58.235Z,99.90
2018-06-30T04:46:26.542Z,99.90
2018-06-30T04:48:54.239Z,99.90
2018-06-30T04:51:22.128Z,99.90
2018-06-30T04:53:49.825Z,99.90
2018-06-30T04:56:17.686Z,99.90
2018-06-30T04:58:45.358Z,99.90
2018-06-30T05:01:12.970Z,99.90
2018-06-30T05:03:40.664Z,99.90
2018-06-30T05:06:08.434Z,99.90
2018-06-30T05:08:36.149Z,99.90
2018-06-30T05:15:59.526Z,99.90
2018-06-30T05:23:22.407Z,99.90
2018-06-30T05:28:18.613Z,99.90
2018-06-30T05:30:46.310Z,99.90
2018-06-30T05:35:41.771Z,99.10
2018-06-30T05:38:09.510Z,98.10
2018-06-30T05:40:37.111Z,98.20
2018-06-30T05:43:05.156Z,98.50
2018-06-30T05:45:32.857Z,98.50
2018-06-30T05:48:00.568Z,98.40
2018-06-30T05:50:28.429Z,98.40
2018-06-30T05:52:56.112Z,99.10
2018-06-30T05:55:24.926Z,99.80
2018-06-30T05:57:52.692Z,99.40
2018-06-30T06:00:20.484Z,99.30
2018-06-30T06:02:48.146Z,99.90
2018-06-30T06:05:15.916Z,99.30
2018-06-30T06:10:11.458Z,97.70
2018-06-30T06:15:07.328Z,95.00
2018-06-30T06:17:35.874Z,95.40
2018-06-30T06:20:04.783Z,95.60
2018-06-30T06:22:32.517Z,96.50
2018-06-30T06:29:56.373Z,97.70
2018-06-30T06:32:24.250Z,97.80
2018-06-30T06:34:51.968Z,98.20
2018-06-30T06:37:19.607Z,97.50
2018-06-30T06:42:14.878Z,93.80
2018-06-30T06:44:42.692Z,93.30
2018-06-30T06:49:38.217Z,94.20
2018-06-30T06:54:34.244Z,94.80
2018-06-30T06:59:29.704Z,95.80
2018-06-30T07:01:57.929Z,93.20
2018-06-30T07:04:25.803Z,93.40
2018-06-30T07:06:53.429Z,93.50
2018-06-30T07:09:21.118Z,94.10
2018-06-30T07:11:48.826Z,94.60
2018-06-30T07:14:16.521Z,94.40
2018-06-30T07:16:44.261Z,94.80
2018-06-30T07:19:12.223Z,94.00
2018-06-30T07:21:40.038Z,93.40
2018-06-30T07:24:08.364Z,93.10
2018-06-30T07:26:37.499Z,93.10
2018-06-30T07:29:05.206Z,93.00
2018-06-30T07:34:00.565Z,92.70
2018-06-30T07:36:28.345Z,92.60
2018-06-30T07:38:56.205Z,92.40
2018-06-30T07:41:23.890Z,92.70
2018-06-30T07:43:51.582Z,92.80
2018-06-30T07:46:19.312Z,92.80
2018-06-30T07:48:47.124Z,93.10
2018-06-30T07:51:14.810Z,93.80
2018-06-30T07:53:42.453Z,94.40
2018-06-30T07:56:10.217Z,93.70
2018-06-30T07:58:37.992Z,91.90
2018-06-30T08:01:06.985Z,90.90
2018-06-30T08:03:34.722Z,90.70
2018-06-30T08:06:02.456Z,90.90
2018-06-30T08:08:30.185Z,91.30
2018-06-30T08:10:57.913Z,86.70
2018-06-30T08:13:25.679Z,86.00
2018-06-30T08:15:53.443Z,88.10
2018-06-30T08:18:21.130Z,86.90
2018-06-30T08:20:48.835Z,84.30
2018-06-30T08:23:16.675Z,83.40
2018-06-30T08:25:44.594Z,83.00
2018-06-30T08:28:12.621Z,82.30
2018-06-30T08:30:40.556Z,75.80
2018-06-30T08:35:36.123Z,72.60
2018-06-30T08:38:03.960Z,74.00
2018-06-30T08:40:31.826Z,69.20
2018-06-30T08:42:59.768Z,67.70
2018-06-30T08:45:27.627Z,68.40
2018-06-30T08:47:55.505Z,64.50
2018-06-30T08:50:23.379Z,66.90
2018-06-30T08:52:50.983Z,57.40
2018-06-30T08:55:18.795Z,57.60
2018-06-30T08:57:46.531Z,57.90
2018-06-30T09:02:41.825Z,59.10
2018-06-30T09:05:09.456Z,57.80
2018-06-30T09:07:37.265Z,56.60
2018-06-30T09:10:04.969Z,57.20
2018-06-30T09:12:32.610Z,56.30
2018-06-30T09:15:00.359Z,55.80
2018-06-30T09:19:56.255Z,55.90
2018-06-30T09:22:24.198Z,56.10
2018-06-30T09:24:51.981Z,54.80
2018-06-30T09:27:19.651Z,55.50
2018-06-30T09:29:47.521Z,55.30
2018-06-30T09:32:15.190Z,54.30
2018-06-30T09:34:42.919Z,52.20
2018-06-30T09:37:10.706Z,52.90
2018-06-30T09:39:38.524Z,55.70
2018-06-30T09:42:06.597Z,54.50
2018-06-30T09:44:34.367Z,52.30
2018-06-30T09:47:02.226Z,53.00
2018-06-30T09:49:29.968Z,54.20
2018-06-30T09:51:57.801Z,54.10
2018-06-30T09:54:25.602Z,53.30
2018-06-30T09:59:21.062Z,52.30
2018-06-30T10:01:48.797Z,52.40
2018-06-30T10:04:16.672Z,52.90
2018-06-30T10:06:44.367Z,51.10
2018-06-30T10:09:12.258Z,50.10
2018-06-30T10:11:40.401Z,49.80
2018-06-30T10:14:08.209Z,52.00
2018-06-30T10:16:37.319Z,52.40
2018-06-30T10:19:05.365Z,51.40
2018-06-30T10:21:33.494Z,50.60
2018-06-30T10:24:03.058Z,49.90
2018-06-30T10:29:00.011Z,49.50
2018-06-30T10:31:28.530Z,49.40
2018-06-30T10:33:56.246Z,48.60
2018-06-30T10:36:24.410Z,50.50
2018-06-30T10:38:52.902Z,48.60
2018-06-30T10:41:20.769Z,49.40
2018-06-30T10:43:49.517Z,49.80
2018-06-30T10:46:18.094Z,50.30
2018-06-30T10:48:47.598Z,49.70
2018-06-30T10:51:15.861Z,48.80
2018-06-30T10:53:43.912Z,50.70
2018-06-30T10:56:11.771Z,49.60
2018-06-30T11:01:08.790Z,48.50
2018-06-30T11:03:36.489Z,46.80
2018-06-30T11:06:04.650Z,48.40
2018-06-30T11:08:32.356Z,49.70
2018-06-30T11:11:00.144Z,48.60
2018-06-30T11:13:28.241Z,47.40
2018-06-30T11:15:56.006Z,46.10
2018-06-30T11:18:24.035Z,47.00
2018-06-30T11:20:52.827Z,48.30
2018-06-30T11:23:20.932Z,48.70
2018-06-30T11:25:48.819Z,47.20
2018-06-30T11:28:16.687Z,47.00
2018-06-30T11:35:42.136Z,45.50
2018-06-30T11:40:38.043Z,48.70
2018-06-30T11:43:06.908Z,46.60
2018-06-30T11:45:35.816Z,47.50
2018-06-30T11:48:04.116Z,48.50
2018-06-30T11:53:03.657Z,48.00
2018-06-30T11:55:33.296Z,46.60
2018-06-30T11:58:02.087Z,46.00
2018-06-30T12:00:30.800Z,46.00
2018-06-30T12:02:59.663Z,46.60
2018-06-30T12:05:28.748Z,45.90
2018-06-30T12:07:57.731Z,44.20
2018-06-30T12:10:25.778Z,43.90
2018-06-30T12:12:53.590Z,43.70
2018-06-30T12:15:23.447Z,43.90
2018-06-30T12:17:51.349Z,44.70
2018-06-30T12:20:19.837Z,44.50
2018-06-30T12:22:48.807Z,45.80
2018-06-30T12:25:16.689Z,46.20
2018-06-30T12:27:45.470Z,45.50
2018-06-30T12:30:13.926Z,42.90
2018-06-30T12:40:06.668Z,45.10
2018-06-30T12:42:35.425Z,44.60
2018-06-30T12:45:03.514Z,43.70
2018-06-30T12:47:34.288Z,45.40
2018-06-30T12:50:02.716Z,43.30
2018-06-30T12:52:31.997Z,44.70
2018-06-30T12:57:29.160Z,46.10
2018-06-30T13:02:24.868Z,44.50
2018-06-30T13:04:52.726Z,43.70
2018-06-30T13:07:22.080Z,44.70
2018-06-30T13:09:50.126Z,45.20
2018-06-30T13:14:46.643Z,45.00
2018-06-30T13:17:14.695Z,45.80
2018-06-30T13:19:42.345Z,44.30
2018-06-30T13:22:11.222Z,44.70
2018-06-30T13:24:40.083Z,42.60
2018-06-30T13:27:08.390Z,43.30
2018-06-30T13:29:36.164Z,44.30
2018-06-30T13:32:05.015Z,44.40
2018-06-30T13:37:04.196Z,43.60
2018-06-30T13:39:31.907Z,44.40
2018-06-30T13:41:59.505Z,44.10
2018-06-30T13:44:27.990Z,44.20
2018-06-30T13:46:55.946Z,44.80
2018-06-30T13:49:23.869Z,45.10
2018-06-30T13:54:22.143Z,44.40
2018-06-30T13:56:50.137Z,43.40
2018-06-30T14:04:16.203Z,44.50
2018-06-30T14:06:43.890Z,44.00
2018-06-30T14:09:12.132Z,43.70
2018-06-30T14:14:07.951Z,43.40
2018-06-30T14:16:37.832Z,43.80
2018-06-30T14:19:05.669Z,44.70
2018-06-30T14:21:33.724Z,44.00
2018-06-30T14:24:01.540Z,43.70
2018-06-30T14:26:29.877Z,43.80
2018-06-30T14:28:58.632Z,43.70
2018-06-30T14:31:26.334Z,43.60
2018-06-30T14:33:54.631Z,43.00
2018-06-30T14:36:22.459Z,42.60
2018-06-30T14:38:50.109Z,45.10
2018-06-30T14:43:45.466Z,43.60
2018-06-30T14:48:41.186Z,43.30
2018-06-30T14:51:09.652Z,43.70
2018-06-30T14:53:37.454Z,43.40
2018-06-30T14:56:05.768Z,43.10
2018-06-30T14:58:33.426Z,42.90
2018-06-30T15:01:01.158Z,43.70
2018-06-30T15:03:28.829Z,44.00
2018-06-30T15:05:56.564Z,44.00
2018-06-30T15:08:24.255Z,44.30
2018-06-30T15:10:51.983Z,43.10
2018-06-30T15:13:19.697Z,42.60
2018-06-30T15:15:47.487Z,43.10
2018-06-30T15:18:15.524Z,43.30
2018-06-30T15:20:43.171Z,43.60
2018-06-30T15:23:11.217Z,44.00
2018-06-30T15:25:39.136Z,42.80
2018-06-30T15:28:06.851Z,43.20
2018-06-30T15:30:34.671Z,43.00
2018-06-30T15:33:02.342Z,44.00
2018-06-30T15:37:57.736Z,43.70
2018-06-30T15:40:25.414Z,43.00
2018-06-30T15:42:53.025Z,41.90
2018-06-30T15:45:20.846Z,43.50
2018-06-30T15:50:16.111Z,42.60
2018-06-30T15:52:43.752Z,42.70
2018-06-30T15:55:11.941Z,42.50
2018-06-30T15:57:39.573Z,43.40
2018-06-30T16:02:35.304Z,42.50
2018-06-30T16:05:03.031Z,43.10
2018-06-30T16:07:30.686Z,42.70
2018-06-30T16:09:59.319Z,42.40
2018-06-30T16:14:54.653Z,42.30
2018-06-30T16:17:23.059Z,43.30
2018-06-30T16:19:50.747Z,42.00
2018-06-30T16:22:19.658Z,42.70
2018-06-30T16:27:14.900Z,43.30
2018-06-30T16:29:42.593Z,44.30
2018-06-30T16:32:10.414Z,43.80
2018-06-30T16:34:38.151Z,44.40
2018-06-30T16:37:05.891Z,44.40
2018-06-30T16:39:33.647Z,43.00
2018-06-30T16:42:01.322Z,43.20
2018-06-30T16:44:29.175Z,42.70
2018-06-30T16:46:56.921Z,42.30
2018-06-30T16:49:24.621Z,43.20
2018-06-30T16:51:52.338Z,42.50
2018-06-30T16:54:20.121Z,43.90
2018-06-30T16:56:47.782Z,43.80
2018-06-30T16:59:15.494Z,43.30
2018-06-30T17:01:43.268Z,44.40
2018-06-30T17:06:38.722Z,44.20
2018-06-30T17:09:09.686Z,44.00
2018-06-30T17:11:37.542Z,45.00
2018-06-30T17:14:05.270Z,43.80
2018-06-30T17:16:33.120Z,44.90
2018-06-30T17:23:56.252Z,45.30
2018-06-30T17:26:24.160Z,45.60
2018-06-30T17:28:51.941Z,44.20
2018-06-30T17:33:47.819Z,43.90
2018-06-30T17:36:15.478Z,44.90
2018-06-30T17:38:43.929Z,44.70
2018-06-30T17:41:12.058Z,44.60
2018-06-30T17:43:39.795Z,44.30
2018-06-30T17:46:07.573Z,45.20
2018-06-30T17:48:35.415Z,45.90
2018-06-30T17:51:03.264Z,45.90
2018-06-30T17:53:31.088Z,46.20
2018-06-30T17:55:58.802Z,45.80
2018-06-30T17:58:26.768Z,46.10
2018-06-30T18:00:54.727Z,45.20
2018-06-30T18:03:22.922Z,45.90
2018-06-30T18:05:50.843Z,45.80
2018-06-30T18:10:46.200Z,46.80
2018-06-30T18:13:13.949Z,45.90
2018-06-30T18:18:09.603Z,46.80
2018-06-30T18:20:37.293Z,46.80
2018-06-30T18:23:05.361Z,46.90
2018-06-30T18:25:33.132Z,46.70
2018-06-30T18:28:00.963Z,46.60
2018-06-30T18:30:28.719Z,47.30
2018-06-30T18:32:57.058Z,47.40
2018-06-30T18:35:24.797Z,47.60
2018-06-30T18:37:52.696Z,48.10
2018-06-30T18:42:48.168Z,48.50
2018-06-30T18:45:16.752Z,48.90
2018-06-30T18:47:44.693Z,48.80
2018-06-30T18:50:12.429Z,48.90
2018-06-30T18:52:40.244Z,49.00
2018-06-30T18:55:07.895Z,48.50
2018-06-30T18:57:36.676Z,48.80
2018-06-30T19:00:05.720Z,49.30
2018-06-30T19:02:33.621Z,50.10
2018-06-30T19:07:29.274Z,50.10
2018-06-30T19:09:57.149Z,50.10
2018-06-30T19:12:24.926Z,50.40
2018-06-30T19:14:52.640Z,50.50
2018-06-30T19:19:48.155Z,51.20
2018-06-30T19:22:15.856Z,51.50
2018-06-30T19:24:43.512Z,52.00
2018-06-30T19:27:11.159Z,51.90
2018-06-30T19:29:38.859Z,52.10
2018-06-30T19:32:06.641Z,52.20
2018-06-30T19:34:34.352Z,52.30
2018-06-30T19:37:02.097Z,53.20
2018-06-30T19:44:25.208Z,54.60
2018-06-30T19:46:52.928Z,54.70
2018-06-30T19:49:21.945Z,55.00
2018-06-30T19:54:17.383Z,55.60
2018-06-30T19:56:46.597Z,56.40
2018-06-30T19:59:14.356Z,56.00
2018-06-30T20:01:42.191Z,56.70
2018-06-30T20:04:09.931Z,56.60
2018-06-30T20:06:37.806Z,57.70
2018-06-30T20:09:06.933Z,58.30
2018-06-30T20:11:35.436Z,58.10
2018-06-30T20:14:03.186Z,58.20
2018-06-30T20:16:30.928Z,58.10
2018-06-30T20:18:58.565Z,58.90
2018-06-30T20:21:26.191Z,58.40
2018-06-30T20:23:54.090Z,58.90
2018-06-30T20:26:21.772Z,58.50
2018-06-30T20:31:17.181Z,59.40
2018-06-30T20:33:45.091Z,59.40
2018-06-30T20:36:12.909Z,59.50
2018-06-30T20:38:40.848Z,59.90
2018-06-30T20:41:08.610Z,60.10
2018-06-30T20:43:36.573Z,60.80
2018-06-30T20:46:04.342Z,61.00
2018-06-30T20:48:32.166Z,61.70
2018-06-30T20:51:00.361Z,62.60
2018-06-30T20:53:28.202Z,63.50
2018-06-30T20:55:56.306Z,63.90
2018-06-30T20:58:23.943Z,64.80
2018-06-30T21:00:51.631Z,64.80
2018-06-30T21:03:19.586Z,65.20
2018-06-30T21:05:48.305Z,66.30
2018-06-30T21:08:16.153Z,66.00
2018-06-30T21:10:44.416Z,67.00
2018-06-30T21:13:12.338Z,67.10
2018-06-30T21:18:08.281Z,68.40
2018-06-30T21:23:04.261Z,69.70
2018-06-30T21:25:32.226Z,70.30
2018-06-30T21:27:59.900Z,69.80
2018-06-30T21:30:28.323Z,70.60
2018-06-30T21:37:53.019Z,72.80
2018-06-30T21:40:20.698Z,72.80
2018-06-30T21:42:48.662Z,72.80
2018-06-30T21:45:16.766Z,73.70
2018-06-30T21:47:44.600Z,74.70
2018-06-30T21:50:12.597Z,75.30
2018-06-30T21:52:41.346Z,75.60
2018-06-30T21:55:09.385Z,75.60
2018-06-30T21:57:37.788Z,76.50
2018-06-30T22:00:08.975Z,77.30
2018-06-30T22:02:36.643Z,77.80
2018-06-30T22:05:04.548Z,78.80
2018-06-30T22:07:32.176Z,79.60
2018-06-30T22:09:59.908Z,79.90
2018-06-30T22:12:27.665Z,80.40
2018-06-30T22:14:55.421Z,80.90
2018-06-30T22:17:23.600Z,80.90
2018-06-30T22:19:51.463Z,81.80
2018-06-30T22:22:19.304Z,82.70
2018-06-30T22:24:47.017Z,84.00
2018-06-30T22:29:42.290Z,84.10
2018-06-30T22:32:10.008Z,85.00
2018-06-30T22:34:37.651Z,84.90
2018-06-30T22:39:44.214Z,85.80
2018-06-30T22:42:11.918Z,85.80
2018-06-30T22:44:39.693Z,86.10
2018-06-30T22:47:07.581Z,86.10
2018-06-30T22:49:35.393Z,86.90
2018-06-30T22:54:30.866Z,87.50
2018-06-30T22:56:58.703Z,88.40
2018-06-30T22:59:26.583Z,88.30
2018-06-30T23:01:54.345Z,88.30
2018-06-30T23:04:22.486Z,88.70
2018-06-30T23:09:17.787Z,89.30
2018-06-30T23:11:46.194Z,89.30
2018-06-30T23:14:13.887Z,89.80
2018-06-30T23:16:41.605Z,90.10
2018-06-30T23:21:36.935Z,90.60
2018-06-30T23:24:05.004Z,90.80
2018-06-30T23:29:00.274Z,90.90
2018-06-30T23:31:27.997Z,91.30
2018-06-30T23:33:55.621Z,91.40
2018-06-30T23:36:23.301Z,91.40
2018-06-30T23:41:19.062Z,91.70
2018-06-30T23:43:47.081Z,91.60
2018-06-30T23:46:14.882Z,91.60
2018-06-30T23:48:42.667Z,91.90
2018-06-30T23:51:11.250Z,92.40
2018-06-30T23:53:39.013Z,92.40
2018-06-30T23:56:06.900Z,92.80
2018-06-30T23:58:34.697Z,93.00
